This is the latest recevied weather packets stored in our database for station/object OK4AB-10. If no packets are shown the sender has not sent any weather packets the latest 1 day(s).
| Time | Temp. | Humidity | Pressure | Rain* | Wind** | Luminosity | Snow |
|---|---|---|---|---|---|---|---|
| 1778056598 | 30° C | 46% | 1006.9 hPa | - | - | - | - |
| 1778056538 | 30° C | 46% | 1007.3 hPa | - | - | - | - |
| 1778056478 | 29.44° C | 46% | 1008 hPa | - | - | - | - |
| 1778056418 | 29.44° C | 47% | 1008 hPa | - | - | - | - |
| 1778056358 | 29.44° C | 47% | 1007.9 hPa | - | - | - | - |
| 1778056298 | 28.89° C | 47% | 1007.7 hPa | - | - | - | - |
| 1778056178 | 28.89° C | 48% | 1007.9 hPa | - | - | - | - |
| 1778056118 | 28.89° C | 48% | 1006.5 hPa | - | - | - | - |
| 1778056058 | 28.33° C | 48% | 1006.7 hPa | - | - | - | - |
| 1778055998 | 28.33° C | 48% | 1007.1 hPa | - | - | - | - |
| 1778055938 | 28.33° C | 49% | 1007.1 hPa | - | - | - | - |
| 1778055878 | 27.78° C | 49% | 1006.7 hPa | - | - | - | - |
| 1778055818 | 27.78° C | 50% | 1006.5 hPa | - | - | - | - |
| 1778055758 | 27.78° C | 50% | 1007.1 hPa | - | - | - | - |
| 1778055698 | 27.22° C | 50% | 1007.8 hPa | - | - | - | - |
| 1778055638 | 27.22° C | 51% | 1008.1 hPa | - | - | - | - |
| 1778055578 | 26.67° C | 51% | 1007.5 hPa | - | - | - | - |
| 1778055518 | 26.67° C | 52% | 1008.4 hPa | - | - | - | - |
| 1778055398 | 26.11° C | 53% | 1007.1 hPa | - | - | - | - |
| 1778005690 | 28.33° C | 43% | 1003.4 hPa | - | - | - | - |
| 1778002629 | 28.89° C | 42% | 1005.1 hPa | - | - | - | - |
| 1778002149 | 28.89° C | 42% | 1004.8 hPa | - | - | - | - |
| 1778002029 | 28.89° C | 42% | 1004.3 hPa | - | - | - | - |
| 1778001969 | 28.89° C | 42% | 1005.1 hPa | - | - | - | - |
| 1778001669 | 28.89° C | 42% | 1004.7 hPa | - | - | - | - |
* Rain since midnight (hover to see other rain measurements)
** Current wind speed in m/s (hover to see current wind gust speed)